createdAt,value
2023-10-23T00:01:56.842Z,100.00
2023-10-23T00:04:24.944Z,100.00
2023-10-23T00:06:52.740Z,100.00
2023-10-23T00:09:21.664Z,100.00
2023-10-23T00:11:49.430Z,100.00
2023-10-23T00:14:17.089Z,100.00
2023-10-23T00:16:44.739Z,100.00
2023-10-23T00:19:12.579Z,100.00
2023-10-23T00:21:40.156Z,100.00
2023-10-23T00:24:07.970Z,100.00
2023-10-23T00:26:35.797Z,100.00
2023-10-23T00:29:03.464Z,100.00
2023-10-23T00:31:31.039Z,100.00
2023-10-23T00:33:59.088Z,100.00
2023-10-23T00:36:26.770Z,100.00
2023-10-23T00:38:54.412Z,100.00
2023-10-23T00:41:22.201Z,100.00
2023-10-23T00:43:49.830Z,100.00
2023-10-23T00:46:21.333Z,100.00
2023-10-23T00:48:49.880Z,100.00
2023-10-23T00:51:18.673Z,100.00
2023-10-23T00:53:47.331Z,100.00
2023-10-23T00:56:15.327Z,100.00
2023-10-23T00:58:43.924Z,100.00
2023-10-23T01:01:16.325Z,100.00
2023-10-23T01:03:44.955Z,100.00
2023-10-23T01:06:15.590Z,100.00
2023-10-23T01:08:43.985Z,100.00
2023-10-23T01:11:11.792Z,100.00
2023-10-23T01:13:39.771Z,100.00
2023-10-23T01:16:08.400Z,100.00
2023-10-23T01:18:36.451Z,100.00
2023-10-23T01:21:04.078Z,100.00
2023-10-23T01:23:35.909Z,100.00
2023-10-23T01:26:04.801Z,100.00
2023-10-23T01:28:32.485Z,100.00
2023-10-23T01:31:00.523Z,100.00
2023-10-23T01:33:29.770Z,100.00
2023-10-23T01:35:57.521Z,100.00
2023-10-23T01:38:26.763Z,100.00
2023-10-23T01:40:54.563Z,100.00
2023-10-23T01:43:22.197Z,100.00
2023-10-23T01:45:49.993Z,100.00
2023-10-23T01:48:17.960Z,100.00
2023-10-23T01:50:45.532Z,100.00
2023-10-23T01:53:13.129Z,100.00
2023-10-23T01:55:41.383Z,100.00
2023-10-23T01:58:08.911Z,100.00
2023-10-23T02:00:36.798Z,100.00
2023-10-23T02:03:05.666Z,100.00
2023-10-23T02:05:33.366Z,100.00
2023-10-23T02:08:00.993Z,100.00
2023-10-23T02:10:30.188Z,100.00
2023-10-23T02:12:57.733Z,100.00
2023-10-23T02:15:25.307Z,100.00
2023-10-23T02:17:53.243Z,100.00
2023-10-23T02:20:23.289Z,100.00
2023-10-23T02:22:50.821Z,100.00
2023-10-23T02:25:18.537Z,100.00
2023-10-23T02:27:46.479Z,100.00
2023-10-23T02:30:14.403Z,100.00
2023-10-23T02:32:41.905Z,100.00
2023-10-23T02:35:10.001Z,100.00
2023-10-23T02:37:37.543Z,100.00
2023-10-23T02:40:07.045Z,100.00
2023-10-23T02:42:35.073Z,100.00
2023-10-23T02:45:02.661Z,100.00
2023-10-23T02:47:30.216Z,100.00
2023-10-23T02:49:58.044Z,100.00
2023-10-23T02:52:26.775Z,100.00
2023-10-23T02:54:54.405Z,100.00
2023-10-23T02:57:22.299Z,100.00
2023-10-23T02:59:49.874Z,100.00
2023-10-23T03:02:17.944Z,100.00
2023-10-23T03:04:45.863Z,100.00
2023-10-23T03:07:14.574Z,100.00
2023-10-23T03:09:42.721Z,100.00
2023-10-23T03:12:10.676Z,100.00
2023-10-23T03:14:38.244Z,100.00
2023-10-23T03:17:05.779Z,100.00
2023-10-23T03:19:33.625Z,100.00
2023-10-23T03:22:01.322Z,100.00
2023-10-23T03:24:29.365Z,100.00
2023-10-23T03:26:58.916Z,100.00
2023-10-23T03:29:26.449Z,100.00
2023-10-23T03:31:53.984Z,100.00
2023-10-23T03:34:26.325Z,100.00
2023-10-23T03:36:54.082Z,100.00
2023-10-23T03:39:21.920Z,100.00
2023-10-23T03:41:49.586Z,100.00
2023-10-23T03:44:17.160Z,100.00
2023-10-23T03:46:45.848Z,100.00
2023-10-23T03:49:13.446Z,100.00
2023-10-23T03:51:40.965Z,100.00
2023-10-23T03:54:08.798Z,100.00
2023-10-23T03:56:36.403Z,100.00
2023-10-23T03:59:04.559Z,100.00
2023-10-23T04:01:32.397Z,100.00
2023-10-23T04:04:00.396Z,100.00
2023-10-23T04:06:28.124Z,100.00
2023-10-23T04:08:55.592Z,100.00
2023-10-23T04:11:23.775Z,100.00
2023-10-23T04:13:51.373Z,100.00
2023-10-23T04:16:19.063Z,100.00
2023-10-23T04:18:47.469Z,100.00
2023-10-23T04:21:15.125Z,100.00
2023-10-23T04:23:42.710Z,100.00
2023-10-23T04:26:10.648Z,100.00
2023-10-23T04:28:38.267Z,100.00
2023-10-23T04:31:06.129Z,100.00
2023-10-23T04:33:34.177Z,100.00
2023-10-23T04:36:02.022Z,100.00
2023-10-23T04:38:29.985Z,100.00
2023-10-23T04:40:57.835Z,100.00
2023-10-23T04:43:25.311Z,100.00
2023-10-23T04:45:56.602Z,100.00
2023-10-23T04:48:24.665Z,100.00
2023-10-23T04:50:52.379Z,100.00
2023-10-23T04:53:20.725Z,100.00
2023-10-23T04:55:48.755Z,100.00
2023-10-23T04:58:16.356Z,100.00
2023-10-23T05:00:45.583Z,100.00
2023-10-23T05:03:13.679Z,100.00
2023-10-23T05:05:48.395Z,100.00
2023-10-23T05:08:16.447Z,100.00
2023-10-23T05:10:43.966Z,100.00
2023-10-23T05:13:11.599Z,100.00
2023-10-23T05:15:39.490Z,100.00
2023-10-23T05:18:07.113Z,100.00
2023-10-23T05:20:35.514Z,100.00
2023-10-23T05:23:04.337Z,100.00
2023-10-23T05:25:31.910Z,100.00
2023-10-23T05:27:59.681Z,100.00
2023-10-23T05:30:28.059Z,100.00
2023-10-23T05:32:55.842Z,100.00
2023-10-23T05:35:23.526Z,100.00
2023-10-23T05:37:51.417Z,100.00
2023-10-23T05:40:18.979Z,100.00
2023-10-23T05:42:46.602Z,100.00
2023-10-23T05:45:14.614Z,100.00
2023-10-23T05:47:42.418Z,100.00
2023-10-23T05:50:10.181Z,100.00
2023-10-23T05:52:37.934Z,100.00
2023-10-23T05:55:06.130Z,100.00
2023-10-23T05:57:33.832Z,100.00
2023-10-23T06:00:02.108Z,100.00
2023-10-23T06:02:31.370Z,100.00
2023-10-23T06:04:59.508Z,100.00
2023-10-23T06:07:27.260Z,100.00
2023-10-23T06:09:54.875Z,100.00
2023-10-23T06:12:22.769Z,100.00
2023-10-23T06:14:51.083Z,100.00
2023-10-23T06:17:18.732Z,100.00
2023-10-23T06:19:46.578Z,100.00
2023-10-23T06:22:14.177Z,100.00
2023-10-23T06:24:41.707Z,100.00
2023-10-23T06:27:09.598Z,100.00
2023-10-23T06:29:37.572Z,100.00
2023-10-23T06:32:05.880Z,100.00
2023-10-23T06:34:33.682Z,100.00
2023-10-23T06:37:01.298Z,100.00
2023-10-23T06:39:28.878Z,100.00
2023-10-23T06:41:56.758Z,100.00
2023-10-23T06:44:24.761Z,100.00
2023-10-23T06:46:52.539Z,100.00
2023-10-23T06:49:20.470Z,100.00
2023-10-23T06:51:48.016Z,100.00
2023-10-23T06:54:15.606Z,100.00
2023-10-23T06:56:43.623Z,100.00
2023-10-23T06:59:11.310Z,100.00
2023-10-23T07:01:45.046Z,100.00
2023-10-23T07:04:13.471Z,100.00
2023-10-23T07:06:41.093Z,100.00
2023-10-23T07:09:08.714Z,100.00
2023-10-23T07:11:36.717Z,100.00
2023-10-23T07:14:04.411Z,100.00
2023-10-23T07:16:32.056Z,100.00
2023-10-23T07:19:00.168Z,100.00
2023-10-23T07:21:28.685Z,100.00
2023-10-23T07:23:56.337Z,100.00
2023-10-23T07:26:24.219Z,100.00
2023-10-23T07:28:51.885Z,100.00
2023-10-23T07:31:19.628Z,100.00
2023-10-23T07:33:47.582Z,100.00
2023-10-23T07:36:16.148Z,100.00
2023-10-23T07:38:44.991Z,100.00
2023-10-23T07:41:14.202Z,100.00
2023-10-23T07:43:43.069Z,100.00
2023-10-23T07:46:17.551Z,100.00
2023-10-23T07:48:47.113Z,100.00
2023-10-23T07:51:15.705Z,100.00
2023-10-23T07:53:43.476Z,100.00
2023-10-23T07:56:14.074Z,100.00
2023-10-23T07:58:42.063Z,100.00
2023-10-23T08:01:13.229Z,100.00
2023-10-23T08:03:42.056Z,100.00
2023-10-23T08:06:11.778Z,100.00
2023-10-23T08:08:41.589Z,100.00
2023-10-23T08:11:11.186Z,100.00
2023-10-23T08:13:39.087Z,100.00
2023-10-23T08:16:07.398Z,100.00
2023-10-23T08:18:39.007Z,100.00
2023-10-23T08:21:16.073Z,100.00
2023-10-23T08:23:47.862Z,100.00
2023-10-23T08:26:15.891Z,100.00
2023-10-23T08:31:29.338Z,100.00
2023-10-23T08:34:02.169Z,100.00
2023-10-23T08:36:29.880Z,100.00
2023-10-23T08:38:57.465Z,100.00
2023-10-23T08:41:26.968Z,100.00
2023-10-23T08:43:56.432Z,100.00
2023-10-23T08:46:32.796Z,100.00
2023-10-23T08:49:02.655Z,100.00
2023-10-23T08:51:31.245Z,98.66
2023-10-23T08:54:10.876Z,98.20
2023-10-23T08:56:42.516Z,98.82
2023-10-23T08:59:11.652Z,97.91
2023-10-23T09:01:39.849Z,97.29
2023-10-23T09:04:11.462Z,98.07
2023-10-23T09:06:40.126Z,97.92
2023-10-23T09:09:08.096Z,95.29
2023-10-23T09:11:47.076Z,95.44
2023-10-23T09:14:29.394Z,93.90
2023-10-23T09:16:58.223Z,94.04
2023-10-23T09:19:29.247Z,94.28
2023-10-23T09:21:57.834Z,93.70
2023-10-23T09:24:26.532Z,92.96
2023-10-23T09:26:54.265Z,92.00
2023-10-23T09:29:30.731Z,91.34
2023-10-23T09:32:00.359Z,91.38
2023-10-23T09:34:30.368Z,91.94
2023-10-23T09:36:58.631Z,91.16
2023-10-23T09:39:26.314Z,91.05
2023-10-23T09:41:54.302Z,89.81
2023-10-23T09:44:25.586Z,90.69
2023-10-23T09:46:55.078Z,89.63
2023-10-23T09:49:23.446Z,89.09
2023-10-23T09:51:54.497Z,89.24
2023-10-23T09:54:22.492Z,88.52
2023-10-23T09:56:52.063Z,87.53
2023-10-23T09:59:25.646Z,87.78
2023-10-23T10:02:00.682Z,88.49
2023-10-23T10:04:49.802Z,87.53
2023-10-23T10:07:28.872Z,84.84
2023-10-23T10:09:58.055Z,83.01
2023-10-23T10:12:28.165Z,83.49
2023-10-23T10:14:58.499Z,83.18
2023-10-23T10:17:27.312Z,82.64
2023-10-23T10:19:57.006Z,80.61
2023-10-23T10:22:31.775Z,79.24
2023-10-23T10:24:59.845Z,77.73
2023-10-23T10:27:28.548Z,79.31
2023-10-23T10:29:56.038Z,78.18
2023-10-23T10:32:26.735Z,78.08
2023-10-23T10:34:57.805Z,77.17
2023-10-23T10:37:29.437Z,73.13
2023-10-23T10:39:57.479Z,73.15
2023-10-23T10:42:30.669Z,75.08
2023-10-23T10:45:00.932Z,74.13
2023-10-23T10:47:37.468Z,74.63
2023-10-23T10:50:06.426Z,73.78
2023-10-23T10:52:35.445Z,74.93
2023-10-23T10:55:14.106Z,74.75
2023-10-23T10:57:44.706Z,74.66
2023-10-23T11:00:13.708Z,74.83
2023-10-23T11:02:41.972Z,75.45
2023-10-23T11:05:15.586Z,73.09
2023-10-23T11:07:47.771Z,70.78
2023-10-23T11:10:15.420Z,72.09
2023-10-23T11:12:43.452Z,72.64
2023-10-23T11:15:11.207Z,72.54
2023-10-23T11:17:38.766Z,73.96
2023-10-23T11:20:08.825Z,73.80
2023-10-23T11:22:48.842Z,73.33
2023-10-23T11:25:16.922Z,72.77
2023-10-23T11:27:44.650Z,71.48
2023-10-23T11:30:12.394Z,69.72
2023-10-23T11:32:41.557Z,68.78
2023-10-23T11:35:09.396Z,67.73
2023-10-23T11:37:43.507Z,67.05
2023-10-23T11:40:12.419Z,66.73
2023-10-23T11:42:51.255Z,66.92
2023-10-23T11:45:19.293Z,65.20
2023-10-23T11:47:47.499Z,65.44
2023-10-23T11:50:15.214Z,64.92
2023-10-23T11:52:49.644Z,65.49
2023-10-23T11:55:18.644Z,64.93
2023-10-23T11:57:48.647Z,65.05
2023-10-23T12:00:18.341Z,65.48
2023-10-23T12:02:48.311Z,64.47
2023-10-23T12:05:17.966Z,64.18
2023-10-23T12:07:51.152Z,63.81
2023-10-23T12:10:18.765Z,61.54
2023-10-23T12:12:47.676Z,61.37
2023-10-23T12:15:16.771Z,62.65
2023-10-23T12:17:44.419Z,61.79
2023-10-23T12:20:13.576Z,62.15
2023-10-23T12:22:46.010Z,62.60
2023-10-23T12:25:15.642Z,61.93
2023-10-23T12:27:43.725Z,59.72
2023-10-23T12:30:16.777Z,58.66
2023-10-23T12:33:17.500Z,57.94
2023-10-23T12:35:40.174Z,54.63
2023-10-23T12:38:08.174Z,55.46
2023-10-23T12:40:37.219Z,55.00
2023-10-23T12:43:05.579Z,56.86
2023-10-23T12:45:33.716Z,58.09
2023-10-23T12:48:01.453Z,56.05
2023-10-23T12:50:30.290Z,58.67
2023-10-23T12:52:58.429Z,57.64
2023-10-23T12:55:26.043Z,56.29
2023-10-23T12:57:53.660Z,55.03
2023-10-23T13:00:21.509Z,53.87
2023-10-23T13:02:49.294Z,52.80
2023-10-23T13:05:16.964Z,53.64
2023-10-23T13:07:44.860Z,53.75
2023-10-23T13:10:12.620Z,54.31
2023-10-23T13:12:40.258Z,54.71
2023-10-23T13:15:08.515Z,54.08
2023-10-23T13:17:36.130Z,53.35
2023-10-23T13:21:28.018Z,54.08
2023-10-23T13:22:55.526Z,51.95
2023-10-23T13:25:23.249Z,51.61
2023-10-23T13:27:50.884Z,53.56
2023-10-23T13:30:18.747Z,53.70
2023-10-23T13:32:47.146Z,54.36
2023-10-23T13:35:16.573Z,55.42
2023-10-23T13:37:45.211Z,51.99
2023-10-23T13:40:12.809Z,53.52
2023-10-23T13:42:40.454Z,51.46
2023-10-23T13:45:08.980Z,53.66
2023-10-23T13:47:36.510Z,53.64
2023-10-23T13:50:05.376Z,54.62
2023-10-23T13:52:34.417Z,55.60
2023-10-23T13:55:02.205Z,55.08
2023-10-23T13:57:29.932Z,54.93
2023-10-23T13:59:57.797Z,55.86
2023-10-23T14:02:25.628Z,56.32
2023-10-23T14:04:53.669Z,55.77
2023-10-23T14:07:21.384Z,55.72
2023-10-23T14:09:50.487Z,55.46
2023-10-23T14:12:20.659Z,54.72
2023-10-23T14:14:48.197Z,55.34
2023-10-23T14:17:15.797Z,55.23
2023-10-23T14:19:48.352Z,54.88
2023-10-23T14:22:18.048Z,54.72
2023-10-23T14:24:49.067Z,54.60
2023-10-23T14:27:17.199Z,52.44
2023-10-23T14:29:44.761Z,53.03
2023-10-23T14:32:12.733Z,54.70
2023-10-23T14:34:40.332Z,55.63
2023-10-23T14:37:08.050Z,55.71
2023-10-23T14:39:35.821Z,56.26
2023-10-23T14:42:03.428Z,56.73
2023-10-23T14:44:32.497Z,57.20
2023-10-23T14:47:00.650Z,57.06
2023-10-23T14:49:29.077Z,58.09
2023-10-23T14:51:56.845Z,57.57
2023-10-23T14:54:25.246Z,58.30
2023-10-23T14:56:53.356Z,58.88
2023-10-23T14:59:22.965Z,60.03
2023-10-23T15:01:51.425Z,60.73
2023-10-23T15:04:19.190Z,60.89
2023-10-23T15:06:46.852Z,61.66
2023-10-23T15:09:14.705Z,62.05
2023-10-23T15:11:42.230Z,62.38
2023-10-23T15:14:10.222Z,62.94
2023-10-23T15:16:38.947Z,63.68
2023-10-23T15:19:06.624Z,64.54
2023-10-23T15:21:34.280Z,64.83
2023-10-23T15:24:02.161Z,64.46
2023-10-23T15:26:29.793Z,64.63
2023-10-23T15:28:57.439Z,65.43
2023-10-23T15:31:25.345Z,66.52
2023-10-23T15:33:53.564Z,67.74
2023-10-23T15:36:21.410Z,68.98
2023-10-23T15:38:49.619Z,70.06
2023-10-23T15:41:17.402Z,71.09
2023-10-23T15:43:56.671Z,71.62
2023-10-23T15:46:24.611Z,72.27
2023-10-23T15:48:52.280Z,72.29
2023-10-23T15:51:19.832Z,72.44
2023-10-23T15:53:47.665Z,73.57
2023-10-23T15:56:15.172Z,74.58
2023-10-23T15:58:42.881Z,76.03
2023-10-23T16:01:11.086Z,75.63
2023-10-23T16:03:39.012Z,74.40
2023-10-23T16:06:09.451Z,74.75
2023-10-23T16:08:37.678Z,76.33
2023-10-23T16:11:06.203Z,78.71
2023-10-23T16:13:38.633Z,78.01
2023-10-23T16:16:14.684Z,77.62
2023-10-23T16:18:45.624Z,78.88
2023-10-23T16:21:15.436Z,77.28
2023-10-23T16:23:43.882Z,77.28
2023-10-23T16:26:12.031Z,78.90
2023-10-23T16:28:40.198Z,79.93
2023-10-23T16:31:13.766Z,81.40
2023-10-23T16:33:41.991Z,81.41
2023-10-23T16:36:10.039Z,81.04
2023-10-23T16:38:37.583Z,82.57
2023-10-23T16:41:05.501Z,83.18
2023-10-23T16:43:33.143Z,83.68
2023-10-23T16:46:00.742Z,84.15
2023-10-23T16:48:28.592Z,85.28
2023-10-23T16:50:56.119Z,86.17
2023-10-23T16:53:23.662Z,87.74
2023-10-23T16:55:53.080Z,86.18
2023-10-23T16:58:24.700Z,86.32
2023-10-23T17:00:54.090Z,87.13
2023-10-23T17:03:23.432Z,88.06
2023-10-23T17:05:51.175Z,89.66
2023-10-23T17:08:18.967Z,90.73
2023-10-23T17:10:46.500Z,89.69
2023-10-23T17:13:14.023Z,89.86
2023-10-23T17:15:43.518Z,88.47
2023-10-23T17:18:11.456Z,88.31
2023-10-23T17:20:41.562Z,89.58
2023-10-23T17:23:09.515Z,89.69
2023-10-23T17:25:41.570Z,90.32
2023-10-23T17:28:09.609Z,90.94
2023-10-23T17:30:38.265Z,90.19
2023-10-23T17:33:09.202Z,89.66
2023-10-23T17:35:39.265Z,89.95
2023-10-23T17:38:07.015Z,89.78
2023-10-23T17:40:38.091Z,90.39
2023-10-23T17:43:06.033Z,91.62
2023-10-23T17:45:34.960Z,90.95
2023-10-23T17:48:04.038Z,90.91
2023-10-23T17:50:33.812Z,92.40
2023-10-23T17:53:02.367Z,93.28
2023-10-23T17:55:31.765Z,93.61
2023-10-23T17:58:00.666Z,95.59
2023-10-23T18:00:28.741Z,95.50
2023-10-23T18:02:57.071Z,95.64
2023-10-23T18:05:25.461Z,95.87
2023-10-23T18:07:54.598Z,95.63
2023-10-23T18:10:23.261Z,96.45
2023-10-23T18:12:52.619Z,98.29
2023-10-23T18:15:20.963Z,97.55
2023-10-23T18:17:49.143Z,97.18
2023-10-23T18:20:16.928Z,98.52
2023-10-23T18:22:44.597Z,98.92
2023-10-23T18:25:12.717Z,99.48
2023-10-23T18:27:40.530Z,99.52
2023-10-23T18:30:08.676Z,99.82
2023-10-23T18:32:36.699Z,100.00
2023-10-23T18:35:07.628Z,100.00
2023-10-23T18:37:36.710Z,100.00
2023-10-23T18:40:05.871Z,100.00
2023-10-23T18:42:35.570Z,100.00
2023-10-23T18:45:06.459Z,100.00
2023-10-23T18:47:34.781Z,100.00
2023-10-23T18:50:06.324Z,100.00
2023-10-23T18:52:34.537Z,100.00
2023-10-23T18:55:02.398Z,100.00
2023-10-23T18:57:30.367Z,100.00
2023-10-23T18:59:59.263Z,100.00
2023-10-23T19:02:27.528Z,100.00
2023-10-23T19:04:55.426Z,100.00
2023-10-23T19:07:23.669Z,100.00
2023-10-23T19:09:58.194Z,100.00
2023-10-23T19:12:26.518Z,100.00
2023-10-23T19:14:54.174Z,100.00
2023-10-23T19:17:36.940Z,100.00
2023-10-23T19:20:09.195Z,100.00
2023-10-23T19:22:38.644Z,100.00
2023-10-23T19:25:07.276Z,100.00
2023-10-23T19:27:35.519Z,100.00
2023-10-23T19:30:04.829Z,100.00
2023-10-23T19:32:32.721Z,100.00
2023-10-23T19:35:01.076Z,100.00
2023-10-23T19:37:29.099Z,100.00
2023-10-23T19:39:56.962Z,100.00
2023-10-23T19:42:29.367Z,100.00
2023-10-23T19:44:57.429Z,100.00
2023-10-23T19:47:25.926Z,100.00
2023-10-23T19:49:53.706Z,100.00
2023-10-23T19:52:21.958Z,100.00
2023-10-23T19:54:50.884Z,100.00
2023-10-23T19:57:18.928Z,100.00
2023-10-23T19:59:46.573Z,99.91
2023-10-23T20:02:14.560Z,99.43
2023-10-23T20:04:42.674Z,99.04
2023-10-23T20:07:10.492Z,97.76
2023-10-23T20:09:38.290Z,96.55
2023-10-23T20:12:06.506Z,95.97
2023-10-23T20:14:34.283Z,95.60
2023-10-23T20:17:01.933Z,95.77
2023-10-23T20:19:29.905Z,95.21
2023-10-23T20:21:59.308Z,93.68
2023-10-23T20:24:27.097Z,93.33
2023-10-23T20:26:54.928Z,92.95
2023-10-23T20:29:22.965Z,93.29
2023-10-23T20:31:50.909Z,92.55
2023-10-23T20:34:18.877Z,92.57
2023-10-23T20:36:46.640Z,92.24
2023-10-23T20:39:14.572Z,91.98
2023-10-23T20:41:42.382Z,91.49
2023-10-23T20:44:09.846Z,91.65
2023-10-23T20:46:37.601Z,91.54
2023-10-23T20:49:05.658Z,91.33
2023-10-23T20:51:33.211Z,95.98
2023-10-23T20:54:00.722Z,96.61
2023-10-23T20:56:28.783Z,95.57
2023-10-23T20:58:56.794Z,92.26
2023-10-23T21:01:24.401Z,91.88
2023-10-23T21:03:52.406Z,91.33
2023-10-23T21:06:20.597Z,91.04
2023-10-23T21:08:48.154Z,91.18
2023-10-23T21:11:16.584Z,91.21
2023-10-23T21:13:44.666Z,90.60
2023-10-23T21:16:12.387Z,91.18
2023-10-23T21:18:40.255Z,91.80
2023-10-23T21:21:07.821Z,93.51
2023-10-23T21:23:35.368Z,92.67
2023-10-23T21:26:07.894Z,92.47
2023-10-23T21:28:35.630Z,92.62
2023-10-23T21:31:03.830Z,95.34
2023-10-23T21:33:31.751Z,94.94
2023-10-23T21:35:59.542Z,95.23
2023-10-23T21:38:28.020Z,94.93
2023-10-23T21:40:55.506Z,94.71
2023-10-23T21:43:23.286Z,94.83
2023-10-23T21:46:01.895Z,94.82
2023-10-23T21:48:38.875Z,94.22
2023-10-23T21:51:07.438Z,93.77
2023-10-23T21:53:36.780Z,93.28
2023-10-23T21:56:04.771Z,93.46
2023-10-23T21:59:02.726Z,93.33
2023-10-23T22:01:22.226Z,93.56
2023-10-23T22:03:50.582Z,93.84
2023-10-23T22:06:19.301Z,93.54
2023-10-23T22:08:47.059Z,93.72
2023-10-23T22:11:15.307Z,95.01
2023-10-23T22:13:43.004Z,94.76
2023-10-23T22:16:10.608Z,94.77
2023-10-23T22:18:38.447Z,95.45
2023-10-23T22:21:06.218Z,95.75
2023-10-23T22:23:33.735Z,96.11
2023-10-23T22:26:01.571Z,96.61
2023-10-23T22:28:29.844Z,97.32
2023-10-23T22:30:57.478Z,97.44
2023-10-23T22:33:25.454Z,97.60
2023-10-23T22:35:53.566Z,97.66
2023-10-23T22:38:21.110Z,98.15
2023-10-23T22:40:49.912Z,98.52
2023-10-23T22:43:17.497Z,98.64
2023-10-23T22:45:55.774Z,99.12
2023-10-23T22:48:30.060Z,99.66
2023-10-23T22:50:58.045Z,100.00
2023-10-23T22:53:26.009Z,100.00
2023-10-23T22:55:55.892Z,100.00
2023-10-23T22:58:30.177Z,100.00
2023-10-23T23:00:59.414Z,100.00
2023-10-23T23:03:27.560Z,100.00
2023-10-23T23:06:02.422Z,100.00
2023-10-23T23:08:31.015Z,100.00
2023-10-23T23:10:58.873Z,100.00
2023-10-23T23:13:26.640Z,100.00
2023-10-23T23:15:58.357Z,100.00
2023-10-23T23:18:26.730Z,100.00
2023-10-23T23:20:58.116Z,100.00
2023-10-23T23:23:25.644Z,100.00
2023-10-23T23:25:53.153Z,100.00
2023-10-23T23:28:20.945Z,100.00
2023-10-23T23:30:48.532Z,100.00
2023-10-23T23:33:16.112Z,100.00
2023-10-23T23:35:44.009Z,100.00
2023-10-23T23:38:11.677Z,100.00
2023-10-23T23:40:40.029Z,100.00
2023-10-23T23:43:08.075Z,100.00
2023-10-23T23:45:35.726Z,100.00
2023-10-23T23:48:04.063Z,100.00
2023-10-23T23:50:31.978Z,100.00
2023-10-23T23:53:00.106Z,100.00
2023-10-23T23:55:28.481Z,100.00
2023-10-23T23:57:56.341Z,100.00
